Terminal Aerodrome Forecast
Issued by NWS

Home | Current Version | Previous Version | Text Only | Print | Product List | Glossary On
Versions: 1 2 3 4 5 6 7 8 9 10 11 12 13 14 15 16 17 18 19 20 21 22 23 24 25 26 27 28 29
000
FTUS46 KOTX 230535
TAFPUW
TAF
KPUW 230535Z 2306/2406 23005KT P6SM -SHRA SCT030 BKN070 OVC120
     FM231200 12005KT P6SM VCSH SCT090 BKN120
     FM232100 25010KT P6SM VCSH SCT100 BKN150=

USA.gov is the U.S. government's official web portal to all federal, state and local government web resources and services.